createdAt,value
2023-03-27T00:02:04.989Z,99994.38
2023-03-27T00:04:31.454Z,100011.66
2023-03-27T00:06:59.584Z,100005.28
2023-03-27T00:09:27.816Z,100017.25
2023-03-27T00:11:56.326Z,100014.94
2023-03-27T00:14:32.313Z,100032.53
2023-03-27T00:17:00.272Z,100020.72
2023-03-27T00:19:27.015Z,100018.91
2023-03-27T00:21:53.657Z,100019.31
2023-03-27T00:24:20.140Z,100047.28
2023-03-27T00:26:46.627Z,100011.66
2023-03-27T00:29:13.515Z,100020.69
2023-03-27T00:31:40.073Z,100038.66
2023-03-27T00:34:06.737Z,100058.88
2023-03-27T00:36:33.160Z,100065.41
2023-03-27T00:38:59.596Z,100056.22
2023-03-27T00:41:26.205Z,100028.56
2023-03-27T00:43:54.315Z,100068.72
2023-03-27T00:46:31.769Z,100039.94
2023-03-27T00:49:01.912Z,100056.63
2023-03-27T00:51:37.093Z,100052.84
2023-03-27T00:54:04.650Z,100069.09
2023-03-27T00:56:33.813Z,100022.28
2023-03-27T00:59:05.131Z,100062.84
2023-03-27T01:01:32.359Z,100048.16
2023-03-27T01:04:02.331Z,100069.97
2023-03-27T01:06:30.072Z,100087.56
2023-03-27T01:08:56.753Z,100058.34
2023-03-27T01:11:38.559Z,100127.16
2023-03-27T01:18:11.672Z,100112.91
2023-03-27T01:21:07.101Z,100109.38
2023-03-27T01:24:11.545Z,100111.59
2023-03-27T01:27:00.377Z,100126.31
2023-03-27T01:29:38.217Z,100098.50
2023-03-27T01:32:26.245Z,100109.25
2023-03-27T01:35:25.974Z,100138.28
2023-03-27T01:38:30.675Z,100149.75
2023-03-27T01:41:04.656Z,100149.22
2023-03-27T01:43:48.870Z,100144.75
2023-03-27T01:46:21.669Z,100140.00
2023-03-27T01:49:04.708Z,100123.88
2023-03-27T01:51:36.788Z,100126.22
2023-03-27T01:54:17.208Z,100134.78
2023-03-27T01:56:53.656Z,100127.97
2023-03-27T01:59:25.029Z,100143.50
2023-03-27T02:01:59.180Z,100138.09
2023-03-27T02:04:33.480Z,100138.63
2023-03-27T02:07:11.985Z,100168.59
2023-03-27T02:09:46.204Z,100167.63
2023-03-27T02:12:20.156Z,100160.53
2023-03-27T02:14:56.143Z,100168.59
2023-03-27T02:17:26.937Z,100187.38
2023-03-27T02:20:16.286Z,100170.56
2023-03-27T02:22:53.683Z,100171.56
2023-03-27T02:25:23.379Z,100186.91
2023-03-27T02:27:56.600Z,100207.25
2023-03-27T02:30:31.281Z,100210.28
2023-03-27T02:33:42.562Z,100198.78
2023-03-27T02:36:41.486Z,100206.44
2023-03-27T02:39:18.753Z,100199.69
2023-03-27T02:41:51.617Z,100219.22
2023-03-27T02:44:53.540Z,100224.34
2023-03-27T02:47:28.663Z,100230.53
2023-03-27T02:50:02.980Z,100236.97
2023-03-27T02:52:33.706Z,100230.88
2023-03-27T02:55:11.907Z,100222.44
2023-03-27T02:57:39.231Z,100251.03
2023-03-27T03:00:25.412Z,100259.91
2023-03-27T03:03:00.656Z,100247.97
2023-03-27T03:05:38.144Z,100250.97
2023-03-27T03:08:05.751Z,100258.28
2023-03-27T03:10:33.335Z,100254.06
2023-03-27T03:12:59.900Z,100255.50
2023-03-27T03:15:26.349Z,100258.06
2023-03-27T03:17:53.128Z,100262.00
2023-03-27T03:20:19.638Z,100269.56
2023-03-27T03:22:48.894Z,100293.38
2023-03-27T03:25:15.398Z,100248.09
2023-03-27T03:27:41.812Z,100289.22
2023-03-27T03:30:11.955Z,100283.59
2023-03-27T03:32:43.558Z,100291.16
2023-03-27T03:35:13.664Z,100288.59
2023-03-27T03:37:40.533Z,100296.19
2023-03-27T03:40:12.199Z,100266.94
2023-03-27T03:42:58.204Z,100316.09
2023-03-27T03:45:42.171Z,100252.78
2023-03-27T03:48:08.696Z,100290.25
2023-03-27T03:50:35.193Z,100312.53
2023-03-27T03:53:01.681Z,100330.28
2023-03-27T03:55:28.137Z,100334.56
2023-03-27T03:57:54.601Z,100329.69
2023-03-27T04:00:22.964Z,100311.09
2023-03-27T04:02:54.899Z,100341.41
2023-03-27T04:05:37.479Z,100299.38
2023-03-27T04:08:07.415Z,100333.00
2023-03-27T04:10:36.282Z,100338.22
2023-03-27T04:13:03.198Z,100354.88
2023-03-27T04:15:29.736Z,100339.53
2023-03-27T04:17:57.852Z,100340.44
2023-03-27T04:20:26.578Z,100337.03
2023-03-27T04:22:54.462Z,100357.94
2023-03-27T04:25:36.758Z,100374.16
2023-03-27T04:28:03.252Z,100348.44
2023-03-27T04:30:29.921Z,100356.03
2023-03-27T04:33:00.075Z,100390.66
2023-03-27T04:35:26.849Z,100363.31
2023-03-27T04:37:53.289Z,100406.66
2023-03-27T04:40:19.985Z,100385.00
2023-03-27T04:42:46.492Z,100402.38
2023-03-27T04:45:23.615Z,100408.03
2023-03-27T04:47:50.158Z,100406.78
2023-03-27T04:50:16.768Z,100417.91
2023-03-27T04:52:44.078Z,100356.00
2023-03-27T04:55:12.396Z,100395.34
2023-03-27T04:57:42.643Z,100376.59
2023-03-27T05:00:23.828Z,100408.50
2023-03-27T05:02:59.132Z,100391.44
2023-03-27T05:05:35.111Z,100401.78
2023-03-27T05:08:01.700Z,100404.13
2023-03-27T05:10:33.706Z,100436.78
2023-03-27T05:13:00.571Z,100414.28
2023-03-27T05:15:30.316Z,100430.66
2023-03-27T05:17:56.974Z,100413.00
2023-03-27T05:20:29.320Z,100450.66
2023-03-27T05:23:04.464Z,100389.84
2023-03-27T05:25:37.261Z,100411.25
2023-03-27T05:28:14.343Z,100444.66
2023-03-27T05:30:42.406Z,100466.78
2023-03-27T05:33:09.527Z,100445.88
2023-03-27T05:35:36.422Z,100453.28
2023-03-27T05:38:02.906Z,100443.38
2023-03-27T05:40:29.736Z,100449.72
2023-03-27T05:42:56.532Z,100484.19
2023-03-27T05:45:24.255Z,100463.22
2023-03-27T05:47:57.926Z,100447.63
2023-03-27T05:50:30.876Z,100448.66
2023-03-27T05:53:01.018Z,100495.94
2023-03-27T05:55:28.435Z,100474.13
2023-03-27T05:57:55.354Z,100478.63
2023-03-27T06:00:34.421Z,100448.81
2023-03-27T06:03:03.175Z,100487.03
2023-03-27T06:05:30.634Z,100521.47
2023-03-27T06:08:32.556Z,100514.13
2023-03-27T06:49:38.933Z,100566.53
2023-03-27T06:52:05.949Z,100594.25
2023-03-27T06:54:32.602Z,100563.22
2023-03-27T06:57:02.143Z,100586.72
2023-03-27T07:22:14.648Z,100612.63
2023-03-27T07:33:35.902Z,100601.13
2023-03-27T07:43:27.274Z,100600.34
2023-03-27T07:46:09.001Z,100569.25
2023-03-27T07:48:35.955Z,100597.00
2023-03-27T07:51:13.462Z,100619.91
2023-03-27T07:53:41.684Z,100616.72
2023-03-27T07:56:08.945Z,100623.38
2023-03-27T07:58:35.517Z,100598.38
2023-03-27T08:01:03.281Z,100614.50
2023-03-27T08:03:30.951Z,100607.78
2023-03-27T08:06:00.109Z,100621.25
2023-03-27T08:08:27.405Z,100625.13
2023-03-27T08:11:13.485Z,100569.88
2023-03-27T08:13:47.219Z,100572.31
2023-03-27T08:16:24.965Z,100581.44
2023-03-27T08:18:51.588Z,100600.34
2023-03-27T08:21:18.651Z,100608.00
2023-03-27T08:23:47.524Z,100622.34
2023-03-27T08:26:48.206Z,100640.00
2023-03-27T08:29:29.463Z,100616.22
2023-03-27T08:32:01.996Z,100640.13
2023-03-27T08:34:29.581Z,100597.50
2023-03-27T08:36:56.308Z,100588.16
2023-03-27T08:39:30.885Z,100648.09
2023-03-27T08:42:19.292Z,100608.78
2023-03-27T08:44:55.134Z,100619.97
2023-03-27T08:47:50.630Z,100652.63
2023-03-27T08:50:48.062Z,100661.41
2023-03-27T08:56:25.868Z,100671.25
2023-03-27T08:58:54.473Z,100655.38
2023-03-27T09:01:40.127Z,100636.72
2023-03-27T09:05:07.165Z,100649.81
2023-03-27T09:07:37.387Z,100693.81
2023-03-27T09:10:40.748Z,100654.28
2023-03-27T09:13:19.604Z,100661.72
2023-03-27T09:16:53.870Z,100689.81
2023-03-27T09:19:31.531Z,100687.16
2023-03-27T09:22:04.506Z,100647.06
2023-03-27T09:25:43.742Z,100693.56
2023-03-27T09:28:21.137Z,100679.75
2023-03-27T09:30:48.773Z,100680.34
2023-03-27T09:33:19.214Z,100663.34
2023-03-27T09:35:52.649Z,100667.91
2023-03-27T09:38:24.820Z,100688.91
2023-03-27T09:40:57.104Z,100699.84
2023-03-27T09:43:29.966Z,100678.47
2023-03-27T09:45:57.947Z,100667.31
2023-03-27T09:48:40.650Z,100645.75
2023-03-27T09:51:36.504Z,100667.28
2023-03-27T09:54:04.089Z,100702.19
2023-03-27T09:56:31.173Z,100691.88
2023-03-27T09:59:20.589Z,100656.09
2023-03-27T10:01:49.083Z,100699.13
2023-03-27T10:04:19.225Z,100667.47
2023-03-27T10:07:02.053Z,100668.69
2023-03-27T10:09:34.853Z,100685.91
2023-03-27T10:12:07.846Z,100719.16
2023-03-27T10:14:43.568Z,100692.00
2023-03-27T10:17:23.813Z,100683.81
2023-03-27T10:19:55.129Z,100701.13
2023-03-27T10:22:31.560Z,100703.41
2023-03-27T10:25:00.912Z,100665.53
2023-03-27T10:27:33.593Z,100704.38
2023-03-27T10:30:25.384Z,100718.25
2023-03-27T10:33:32.499Z,100728.97
2023-03-27T10:36:07.895Z,100687.75
2023-03-27T10:38:45.003Z,100697.22
2023-03-27T10:41:28.654Z,100706.88
2023-03-27T10:44:26.121Z,100677.50
2023-03-27T10:46:55.415Z,100736.34
2023-03-27T10:50:10.491Z,100716.97
2023-03-27T10:56:28.266Z,100700.25
2023-03-27T10:59:38.366Z,100722.91
2023-03-27T11:02:23.354Z,100748.75
2023-03-27T11:05:22.770Z,100723.06
2023-03-27T11:07:58.479Z,100737.75
2023-03-27T11:10:36.786Z,100745.47
2023-03-27T11:13:19.738Z,100732.44
2023-03-27T11:16:11.819Z,100749.13
2023-03-27T11:22:39.074Z,100714.47
2023-03-27T11:25:16.622Z,100717.03
2023-03-27T11:28:07.819Z,100681.47
2023-03-27T11:30:43.591Z,100732.50
2023-03-27T11:33:40.199Z,100753.78
2023-03-27T11:36:10.122Z,100743.28
2023-03-27T11:38:52.841Z,100737.56
2023-03-27T11:41:21.851Z,100724.19
2023-03-27T11:43:48.651Z,100716.84
2023-03-27T11:46:21.454Z,100765.06
2023-03-27T11:48:59.061Z,100750.31
2023-03-27T11:51:43.998Z,100752.84
2023-03-27T11:54:29.964Z,100728.19
2023-03-27T11:57:01.216Z,100735.78
2023-03-27T11:59:48.602Z,100715.69
2023-03-27T12:02:41.074Z,100749.41
2023-03-27T12:05:40.751Z,100711.97
2023-03-27T12:08:41.296Z,100739.59
2023-03-27T12:11:11.141Z,100749.19
2023-03-27T12:14:02.199Z,100754.34
2023-03-27T12:16:44.779Z,100752.28
2023-03-27T12:19:28.603Z,100762.63
2023-03-27T12:22:21.101Z,100766.06
2023-03-27T12:25:20.681Z,100765.44
2023-03-27T12:28:22.743Z,100767.66
2023-03-27T12:31:23.660Z,100772.66
2023-03-27T12:34:06.288Z,100765.66
2023-03-27T12:36:39.487Z,100764.09
2023-03-27T12:39:18.701Z,100759.72
2023-03-27T12:41:45.977Z,100773.22
2023-03-27T12:44:14.864Z,100754.16
2023-03-27T12:46:42.240Z,100759.75
2023-03-27T12:49:10.788Z,100789.19
2023-03-27T12:51:54.107Z,100756.72
2023-03-27T12:54:35.394Z,100750.25
2023-03-27T12:57:23.186Z,100798.31
2023-03-27T12:59:49.645Z,100799.81
2023-03-27T13:02:34.734Z,100799.84
2023-03-27T13:05:26.962Z,100799.56
2023-03-27T13:08:12.181Z,100805.78
2023-03-27T13:11:17.256Z,100815.09
2023-03-27T13:13:52.930Z,100816.00
2023-03-27T13:16:40.331Z,100808.47
2023-03-27T13:19:37.980Z,100831.84
2023-03-27T13:22:39.585Z,100819.13
2023-03-27T13:25:15.940Z,100841.50
2023-03-27T13:28:07.536Z,100831.31
2023-03-27T13:30:43.224Z,100826.06
2023-03-27T13:33:11.891Z,100837.84
2023-03-27T13:35:41.418Z,100819.25
2023-03-27T13:38:10.561Z,100843.34
2023-03-27T13:40:40.571Z,100795.56
2023-03-27T13:43:32.164Z,100818.66
2023-03-27T13:46:01.463Z,100833.50
2023-03-27T13:49:05.128Z,100839.84
2023-03-27T13:52:32.028Z,100842.41
2023-03-27T13:55:17.162Z,100835.84
2023-03-27T13:58:13.302Z,100820.47
2023-03-27T14:00:57.964Z,100826.63
2023-03-27T14:03:53.682Z,100801.91
2023-03-27T14:06:45.122Z,100829.66
2023-03-27T14:09:42.701Z,100829.78
2023-03-27T14:12:31.189Z,100826.31
2023-03-27T14:15:43.135Z,100821.59
2023-03-27T14:18:47.092Z,100819.78
2023-03-27T14:21:31.298Z,100803.41
2023-03-27T14:24:18.383Z,100816.34
2023-03-27T14:26:45.899Z,100817.13
2023-03-27T14:29:12.458Z,100811.53
2023-03-27T14:31:38.987Z,100809.91
2023-03-27T14:34:35.331Z,100822.63
2023-03-27T14:37:47.216Z,100805.44
2023-03-27T14:43:47.414Z,100772.66
2023-03-27T14:46:14.454Z,100794.31
2023-03-27T14:48:45.031Z,100807.44
2023-03-27T14:51:16.214Z,100808.25
2023-03-27T14:53:45.464Z,100804.75
2023-03-27T14:56:27.281Z,100789.19
2023-03-27T14:58:58.463Z,100810.88
2023-03-27T15:04:14.295Z,100822.16
2023-03-27T15:06:41.821Z,100840.38
2023-03-27T15:09:26.350Z,100811.69
2023-03-27T15:11:56.816Z,100807.56
2023-03-27T15:15:06.280Z,100811.91
2023-03-27T15:17:34.748Z,100805.84
2023-03-27T15:20:10.055Z,100800.06
2023-03-27T15:23:06.678Z,100808.88
2023-03-27T15:25:45.523Z,100799.47
2023-03-27T15:28:22.168Z,100840.44
2023-03-27T15:31:43.415Z,100838.66
2023-03-27T15:35:05.592Z,100804.19
2023-03-27T15:37:32.981Z,100779.47
2023-03-27T15:40:13.674Z,100835.59
2023-03-27T15:42:52.876Z,100815.06
2023-03-27T15:45:34.265Z,100788.88
2023-03-27T15:48:19.139Z,100834.56
2023-03-27T15:50:58.781Z,100832.09
2023-03-27T15:53:44.918Z,100819.66
2023-03-27T15:56:35.192Z,100831.78
2023-03-27T15:59:06.962Z,100839.44
2023-03-27T16:02:20.036Z,100811.16
2023-03-27T16:04:55.423Z,100889.50
2023-03-27T16:07:42.168Z,100868.41
2023-03-27T16:10:11.205Z,100882.94
2023-03-27T16:12:40.809Z,100875.34
2023-03-27T16:15:41.519Z,100903.88
2023-03-27T16:18:22.028Z,100846.53
2023-03-27T16:20:48.988Z,100841.03
2023-03-27T16:23:29.725Z,100843.41
2023-03-27T16:25:56.894Z,100866.09
2023-03-27T16:28:25.097Z,100844.09
2023-03-27T16:30:51.974Z,100882.78
2023-03-27T16:33:22.474Z,100868.56
2023-03-27T16:35:52.799Z,100870.69
2023-03-27T16:38:20.099Z,100886.22
2023-03-27T16:40:46.645Z,100894.31
2023-03-27T16:43:13.439Z,100890.66
2023-03-27T16:46:05.085Z,100899.16
2023-03-27T16:48:31.563Z,100877.47
2023-03-27T16:50:58.045Z,100875.03
2023-03-27T16:53:24.554Z,100854.09
2023-03-27T16:58:41.370Z,100885.09
2023-03-27T17:01:09.260Z,100873.97
2023-03-27T17:03:38.736Z,100862.13
2023-03-27T17:06:11.543Z,100878.84
2023-03-27T17:08:38.342Z,100907.47
2023-03-27T17:11:08.275Z,100915.69
2023-03-27T17:13:36.008Z,100904.91
2023-03-27T17:16:03.704Z,100935.00
2023-03-27T17:18:30.413Z,100895.72
2023-03-27T17:21:20.308Z,100956.38
2023-03-27T17:24:21.246Z,100899.72
2023-03-27T17:27:30.560Z,100970.09
2023-03-27T17:29:57.671Z,100932.72
2023-03-27T17:32:38.997Z,100967.81
2023-03-27T17:35:09.145Z,100978.19
2023-03-27T17:37:36.083Z,100968.00
2023-03-27T17:40:07.238Z,100954.47
2023-03-27T17:42:33.781Z,100975.81
2023-03-27T17:45:00.392Z,100953.94
2023-03-27T17:47:26.963Z,100956.19
2023-03-27T17:49:54.810Z,100957.31
2023-03-27T17:52:41.835Z,100935.25
2023-03-27T17:55:20.857Z,100992.34
2023-03-27T17:57:53.098Z,100968.78
2023-03-27T18:00:29.653Z,100949.84
2023-03-27T18:07:50.088Z,100974.16
2023-03-27T18:10:20.740Z,100924.88
2023-03-27T18:12:48.009Z,100945.19
2023-03-27T18:15:26.928Z,100990.53
2023-03-27T18:18:19.902Z,100955.47
2023-03-27T18:25:26.962Z,100969.56
2023-03-27T18:27:53.442Z,100981.00
2023-03-27T18:33:32.298Z,100923.22
2023-03-27T18:36:01.843Z,100950.88
2023-03-27T18:38:37.660Z,100967.56
2023-03-27T18:41:11.021Z,100951.47
2023-03-27T18:44:13.105Z,100926.91
2023-03-27T18:49:36.896Z,100992.09
2023-03-27T18:55:18.213Z,100955.13
2023-03-27T18:57:56.626Z,100959.31
2023-03-27T19:00:23.376Z,100946.72
2023-03-27T19:02:50.277Z,100954.00
2023-03-27T19:05:33.160Z,100965.47
2023-03-27T19:07:59.651Z,100978.75
2023-03-27T19:10:26.311Z,100936.88
2023-03-27T19:13:01.468Z,100979.28
2023-03-27T19:15:30.053Z,100933.75
2023-03-27T19:26:48.153Z,100921.94
2023-03-27T19:33:20.595Z,100915.16
2023-03-27T19:39:45.492Z,100940.69
2023-03-27T19:43:05.123Z,100917.28
2023-03-27T20:05:51.626Z,100972.41
2023-03-27T20:15:25.745Z,100945.41
2023-03-27T20:22:20.791Z,100938.91
2023-03-27T20:25:33.025Z,100964.13
2023-03-27T20:54:19.984Z,100952.25
2023-03-27T20:57:02.474Z,100888.44
2023-03-27T20:59:38.144Z,100910.53
2023-03-27T21:05:13.710Z,100884.31
2023-03-27T21:07:41.302Z,100928.59
2023-03-27T21:10:31.202Z,100933.72
2023-03-27T21:12:57.886Z,100905.97
2023-03-27T21:15:24.667Z,100943.44
2023-03-27T21:17:54.541Z,100917.38
2023-03-27T21:27:59.092Z,100922.47
2023-03-27T21:30:46.233Z,100942.97
2023-03-27T21:33:16.298Z,100918.16
2023-03-27T21:35:52.625Z,100914.22
2023-03-27T21:38:19.210Z,100937.47
2023-03-27T21:48:01.226Z,100928.81
2023-03-27T21:50:36.851Z,100937.53
2023-03-27T21:53:03.555Z,100943.56
2023-03-27T21:55:53.885Z,100929.78
2023-03-27T21:58:20.452Z,100898.31
2023-03-27T22:00:55.765Z,100939.50
2023-03-27T22:03:35.299Z,100908.69
2023-03-27T22:06:38.183Z,100895.31
2023-03-27T22:09:31.679Z,100960.22
2023-03-27T22:12:20.395Z,100938.34
2023-03-27T22:14:47.050Z,100950.63
2023-03-27T22:17:16.840Z,100965.38
2023-03-27T22:19:43.492Z,100980.34
2023-03-27T22:22:09.940Z,100973.31
2023-03-27T22:24:36.471Z,100984.25
2023-03-27T22:27:03.106Z,100934.75
2023-03-27T22:33:00.997Z,100948.69
2023-03-27T22:35:27.575Z,100929.59
2023-03-27T22:38:07.455Z,100957.25
2023-03-27T22:40:34.187Z,100921.53
2023-03-27T22:45:41.553Z,100931.72
2023-03-27T22:48:09.328Z,100966.34
2023-03-27T22:50:43.019Z,100975.63
2023-03-27T22:53:09.702Z,100960.22
2023-03-27T22:55:36.168Z,100989.34
2023-03-27T22:58:02.672Z,100965.25
2023-03-27T23:00:31.653Z,100958.84
2023-03-27T23:03:01.911Z,100977.31
2023-03-27T23:05:30.833Z,100932.94
2023-03-27T23:07:57.451Z,100982.00
2023-03-27T23:10:23.976Z,100993.28
2023-03-27T23:13:15.530Z,100956.56
2023-03-27T23:15:42.126Z,100968.13
2023-03-27T23:18:18.295Z,100973.41
2023-03-27T23:20:45.149Z,100985.38
2023-03-27T23:23:40.454Z,100969.97
2023-03-27T23:26:22.645Z,100948.91
2023-03-27T23:29:08.192Z,100961.03
2023-03-27T23:31:44.150Z,100994.78
2023-03-27T23:34:11.014Z,100965.31
2023-03-27T23:36:37.676Z,101008.53
2023-03-27T23:39:04.121Z,101047.75
2023-03-27T23:41:30.806Z,101078.38
2023-03-27T23:43:59.677Z,101066.75
2023-03-27T23:46:26.249Z,101058.41
2023-03-27T23:48:52.670Z,101066.53
2023-03-27T23:51:19.193Z,101068.75
2023-03-27T23:53:45.903Z,101048.22
2023-03-27T23:56:12.641Z,101054.91
2023-03-27T23:58:39.657Z,101043.63
